createdAt,value
2018-11-14T00:01:59.234Z,101280.10
2018-11-14T00:04:34.233Z,101284.07
2018-11-14T00:07:07.038Z,101280.01
2018-11-14T00:09:38.258Z,101281.01
2018-11-14T00:12:12.950Z,101284.55
2018-11-14T00:14:44.987Z,101285.64
2018-11-14T00:17:21.109Z,101271.64
2018-11-14T00:19:52.828Z,101273.16
2018-11-14T00:22:29.228Z,101269.69
2018-11-14T00:25:08.586Z,101271.13
2018-11-14T00:27:43.437Z,101274.77
2018-11-14T00:30:26.825Z,101270.97
2018-11-14T00:33:03.595Z,101285.61
2018-11-14T00:35:37.709Z,101280.20
2018-11-14T00:38:13.766Z,101293.50
2018-11-14T00:40:48.814Z,101286.55
2018-11-14T00:43:20.203Z,101295.47
2018-11-14T00:46:02.308Z,101292.44
2018-11-14T00:48:37.370Z,101294.55
2018-11-14T00:51:09.397Z,101304.55
2018-11-14T00:53:47.713Z,101308.07
2018-11-14T00:56:22.682Z,101304.57
2018-11-14T00:58:55.511Z,101308.31
2018-11-14T01:01:29.927Z,101313.70
2018-11-14T01:04:07.096Z,101306.23
2018-11-14T01:06:41.923Z,101304.67
2018-11-14T01:09:15.117Z,101189.32
2018-11-14T01:11:47.121Z,101304.47
2018-11-14T01:14:21.534Z,101297.70
2018-11-14T01:16:59.658Z,101304.52
2018-11-14T01:19:32.931Z,101307.63
2018-11-14T01:22:10.494Z,101307.74
2018-11-14T01:24:48.193Z,101301.19
2018-11-14T01:27:19.929Z,101209.58
2018-11-14T01:29:52.636Z,101299.34
2018-11-14T01:32:29.599Z,101300.94
2018-11-14T01:35:12.188Z,101306.92
2018-11-14T01:37:46.346Z,101307.78
2018-11-14T01:40:23.496Z,101299.56
2018-11-14T01:43:00.084Z,101308.55
2018-11-14T01:45:33.296Z,101302.56
2018-11-14T01:48:07.332Z,101298.77
2018-11-14T01:50:39.700Z,101287.38
2018-11-14T01:53:11.771Z,101284.83
2018-11-14T01:55:48.926Z,101282.34
2018-11-14T01:58:20.860Z,101165.93
2018-11-14T02:00:53.743Z,101287.89
2018-11-14T02:03:28.718Z,101290.27
2018-11-14T02:06:01.385Z,101276.30
2018-11-14T02:08:35.207Z,101280.38
2018-11-14T02:11:07.839Z,101276.72
2018-11-14T02:13:46.461Z,101282.56
2018-11-14T02:16:22.946Z,101277.28
2018-11-14T02:18:58.137Z,101267.02
2018-11-14T02:21:34.139Z,101281.34
2018-11-14T02:24:10.778Z,101279.02
2018-11-14T02:26:46.525Z,101281.60
2018-11-14T02:29:19.399Z,101274.94
2018-11-14T02:32:00.551Z,101272.42
2018-11-14T02:40:46.738Z,101274.27
2018-11-14T02:43:31.110Z,101279.53
2018-11-14T02:51:43.939Z,101273.49
2018-11-14T02:54:33.100Z,101268.02
2018-11-14T02:57:17.271Z,101242.06
2018-11-14T02:59:55.630Z,101265.06
2018-11-14T03:02:45.661Z,101266.58
2018-11-14T03:08:06.560Z,101265.48
2018-11-14T03:10:42.371Z,101267.28
2018-11-14T03:13:33.145Z,101265.58
2018-11-14T03:45:29.323Z,101266.22
2018-11-14T03:51:01.775Z,101258.55
2018-11-14T03:53:42.424Z,101258.84
2018-11-14T03:56:30.846Z,101256.25
2018-11-14T03:59:14.326Z,101246.86
2018-11-14T04:13:03.657Z,101234.64
2018-11-14T04:15:38.413Z,101227.80
2018-11-14T04:18:13.051Z,101241.34
2018-11-14T04:20:51.176Z,101233.61
2018-11-14T04:23:33.181Z,101232.45
2018-11-14T04:26:16.582Z,101229.98
2018-11-14T04:29:08.810Z,101227.69
2018-11-14T04:32:06.928Z,101224.20
2018-11-14T04:37:54.638Z,101227.72
2018-11-14T04:40:56.578Z,101231.13
2018-11-14T04:44:16.370Z,101228.20
2018-11-14T04:53:03.944Z,101236.53
2018-11-14T05:08:56.663Z,101234.33
2018-11-14T05:11:28.245Z,101238.06
2018-11-14T05:14:05.130Z,101234.97
2018-11-14T05:16:38.286Z,101230.44
2018-11-14T05:19:18.635Z,101237.56
2018-11-14T05:21:55.930Z,101244.27
2018-11-14T05:24:34.508Z,101248.45
2018-11-14T05:27:12.491Z,101243.52
2018-11-14T05:29:54.634Z,101247.05
2018-11-14T05:32:27.264Z,101241.27
2018-11-14T05:35:06.515Z,101237.94
2018-11-14T05:37:41.636Z,101236.32
2018-11-14T05:40:21.341Z,101218.58
2018-11-14T05:42:59.541Z,101228.02
2018-11-14T05:45:35.998Z,101230.94
2018-11-14T05:48:10.014Z,101225.10
2018-11-14T05:50:55.643Z,101223.42
2018-11-14T05:53:35.752Z,101227.78
2018-11-14T05:56:10.022Z,101223.49
2018-11-14T05:58:42.832Z,101224.89
2018-11-14T06:01:24.826Z,101108.41
2018-11-14T06:04:04.341Z,101218.04
2018-11-14T06:06:39.069Z,101227.44
2018-11-14T06:09:17.857Z,101217.40
2018-11-14T06:11:52.382Z,101209.02
2018-11-14T06:14:24.846Z,101220.39
2018-11-14T06:17:01.899Z,101221.83
2018-11-14T06:19:37.983Z,101232.25
2018-11-14T06:22:12.443Z,101229.69
2018-11-14T06:24:48.887Z,101229.73
2018-11-14T06:27:25.544Z,101226.98
2018-11-14T06:30:01.989Z,101232.38
2018-11-14T06:32:38.658Z,101235.93
2018-11-14T06:35:12.717Z,101226.15
2018-11-14T06:37:54.949Z,101228.64
2018-11-14T06:40:31.785Z,101232.76
2018-11-14T06:43:09.847Z,101226.09
2018-11-14T06:45:46.158Z,101224.01
2018-11-14T06:48:23.235Z,101218.06
2018-11-14T06:50:56.608Z,101226.47
2018-11-14T06:53:38.526Z,101237.52
2018-11-14T06:56:13.898Z,101246.18
2018-11-14T06:58:51.518Z,101249.21
2018-11-14T07:01:27.376Z,101253.89
2018-11-14T07:04:03.736Z,101258.78
2018-11-14T07:06:43.859Z,101253.96
2018-11-14T07:09:20.128Z,101255.91
2018-11-14T07:11:55.301Z,101252.73
2018-11-14T07:14:34.729Z,101249.70
2018-11-14T07:17:10.599Z,101245.76
2018-11-14T07:19:48.693Z,101253.92
2018-11-14T07:22:26.342Z,101244.51
2018-11-14T07:25:05.778Z,101243.63
2018-11-14T07:27:48.552Z,101239.94
2018-11-14T07:30:27.040Z,101241.72
2018-11-14T07:33:07.814Z,101236.47
2018-11-14T07:35:42.106Z,101247.11
2018-11-14T07:38:38.293Z,101226.72
2018-11-14T07:41:12.780Z,101236.14
2018-11-14T07:43:48.598Z,101236.09
2018-11-14T07:46:23.370Z,101247.02
2018-11-14T07:49:00.675Z,101249.41
2018-11-14T07:51:58.652Z,101247.32
2018-11-14T07:54:39.311Z,101254.16
2018-11-14T07:57:13.538Z,101240.55
2018-11-14T07:59:52.449Z,101238.27
2018-11-14T08:02:22.211Z,101245.98
2018-11-14T08:04:51.970Z,101245.12
2018-11-14T08:07:22.128Z,101247.64
2018-11-14T08:10:02.243Z,101235.88
2018-11-14T08:12:33.050Z,101243.66
2018-11-14T08:15:07.703Z,101247.63
2018-11-14T08:17:42.092Z,101233.20
2018-11-14T08:20:15.937Z,101239.53
2018-11-14T08:22:53.402Z,101236.27
2018-11-14T08:25:28.723Z,101240.87
2018-11-14T08:28:05.934Z,101249.14
2018-11-14T08:30:46.577Z,101241.78
2018-11-14T08:36:42.227Z,101239.32
2018-11-14T08:39:16.927Z,101211.34
2018-11-14T08:41:52.861Z,101246.83
2018-11-14T08:44:26.463Z,101254.06
2018-11-14T08:47:00.010Z,101128.13
2018-11-14T08:49:34.909Z,101254.31
2018-11-14T08:52:10.321Z,101243.00
2018-11-14T08:54:47.645Z,101245.83
2018-11-14T08:57:20.659Z,101236.67
2018-11-14T08:59:56.935Z,101247.17
2018-11-14T09:02:32.170Z,101247.20
2018-11-14T09:05:12.838Z,101246.22
2018-11-14T09:07:48.241Z,101246.38
2018-11-14T09:10:26.925Z,101245.97
2018-11-14T09:13:04.639Z,101251.88
2018-11-14T09:15:49.565Z,101258.35
2018-11-14T09:18:27.297Z,101263.39
2018-11-14T09:21:08.759Z,101259.27
2018-11-14T09:23:44.292Z,101257.73
2018-11-14T09:26:19.598Z,101266.80
2018-11-14T09:28:59.151Z,101240.61
2018-11-14T09:31:34.191Z,101263.84
2018-11-14T09:34:11.334Z,101269.18
2018-11-14T09:37:04.326Z,101271.14
2018-11-14T09:39:58.539Z,101253.05
2018-11-14T09:45:56.452Z,101262.10
2018-11-14T09:48:36.082Z,101273.77
2018-11-14T09:51:11.145Z,101269.11
2018-11-14T09:53:54.797Z,101268.70
2018-11-14T09:56:27.890Z,101260.81
2018-11-14T09:59:01.843Z,101251.24
2018-11-14T10:05:11.675Z,101245.73
2018-11-14T10:07:45.472Z,101248.06
2018-11-14T10:10:19.419Z,101250.72
2018-11-14T10:12:53.667Z,101246.65
2018-11-14T10:15:28.968Z,101238.67
2018-11-14T10:18:04.330Z,101238.48
2018-11-14T10:20:38.956Z,101236.33
2018-11-14T10:23:22.294Z,101234.25
2018-11-14T10:25:59.031Z,101238.00
2018-11-14T10:28:31.787Z,101238.77
2018-11-14T10:31:05.389Z,101237.61
2018-11-14T10:33:41.655Z,101235.88
2018-11-14T10:36:17.242Z,101231.75
2018-11-14T10:38:51.345Z,101227.06
2018-11-14T10:41:28.341Z,101223.37
2018-11-14T10:44:07.286Z,101225.68
2018-11-14T10:46:42.333Z,101215.66
2018-11-14T10:49:16.626Z,101205.58
2018-11-14T10:51:54.901Z,101205.94
2018-11-14T10:54:32.375Z,101200.88
2018-11-14T10:57:11.956Z,101206.79
2018-11-14T10:59:46.175Z,101200.07
2018-11-14T11:02:25.240Z,101203.42
2018-11-14T11:05:03.995Z,101209.66
2018-11-14T11:07:44.230Z,101212.52
2018-11-14T11:10:22.267Z,101214.33
2018-11-14T11:13:03.488Z,101203.55
2018-11-14T11:15:40.255Z,101205.52
2018-11-14T11:18:20.320Z,101204.12
2018-11-14T11:20:55.492Z,101223.47
2018-11-14T11:23:29.733Z,101209.86
2018-11-14T11:26:05.932Z,101204.52
2018-11-14T11:28:42.958Z,101199.77
2018-11-14T11:31:19.879Z,101192.70
2018-11-14T11:33:54.773Z,101188.51
2018-11-14T11:36:30.373Z,101187.74
2018-11-14T11:39:07.172Z,101186.29
2018-11-14T11:41:42.274Z,101189.36
2018-11-14T11:44:21.444Z,101182.27
2018-11-14T11:46:55.371Z,101166.36
2018-11-14T11:49:34.656Z,101170.58
2018-11-14T11:52:11.806Z,101169.61
2018-11-14T11:54:53.613Z,101167.12
2018-11-14T11:57:36.269Z,101167.23
2018-11-14T12:00:26.658Z,101167.92
2018-11-14T12:03:03.703Z,101159.63
2018-11-14T12:05:41.456Z,101159.56
2018-11-14T12:08:20.146Z,101157.26
2018-11-14T12:10:56.935Z,101155.09
2018-11-14T12:16:19.293Z,101147.97
2018-11-14T12:18:56.324Z,101146.92
2018-11-14T12:21:34.961Z,101151.09
2018-11-14T12:24:12.754Z,101153.61
2018-11-14T12:26:52.305Z,101146.88
2018-11-14T12:32:06.546Z,101142.23
2018-11-14T12:34:41.777Z,101140.11
2018-11-14T12:37:18.138Z,101143.62
2018-11-14T12:39:58.702Z,101137.38
2018-11-14T12:42:36.489Z,101138.77
2018-11-14T12:45:12.998Z,101137.76
2018-11-14T12:47:52.060Z,101139.39
2018-11-14T12:50:28.711Z,101119.53
2018-11-14T12:53:15.979Z,101134.62
2018-11-14T12:55:49.627Z,101133.47
2018-11-14T12:58:24.354Z,101127.43
2018-11-14T13:01:03.530Z,101120.88
2018-11-14T13:06:19.646Z,101115.56
2018-11-14T13:08:55.285Z,101115.23
2018-11-14T13:11:30.674Z,101104.47
2018-11-14T13:14:04.093Z,101100.61
2018-11-14T13:16:39.396Z,101102.80
2018-11-14T13:19:16.944Z,101041.86
2018-11-14T13:21:51.949Z,101098.30
2018-11-14T13:24:30.302Z,101016.89
2018-11-14T13:27:04.258Z,101106.50
2018-11-14T13:29:41.529Z,101099.61
2018-11-14T13:32:23.591Z,101096.10
2018-11-14T13:35:01.182Z,101099.30
2018-11-14T13:37:35.887Z,101096.40
2018-11-14T13:40:13.508Z,101085.02
2018-11-14T13:42:50.438Z,101086.69
2018-11-14T13:45:31.356Z,101091.00
2018-11-14T13:48:12.270Z,101085.63
2018-11-14T13:50:46.444Z,101075.99
2018-11-14T13:53:21.803Z,101081.16
2018-11-14T13:55:55.547Z,101081.52
2018-11-14T13:58:31.357Z,101084.59
2018-11-14T14:01:09.883Z,101078.94
2018-11-14T14:03:45.610Z,101082.44
2018-11-14T14:06:20.218Z,101079.06
2018-11-14T14:09:01.376Z,101064.79
2018-11-14T14:11:39.231Z,100992.30
2018-11-14T14:14:22.091Z,101053.88
2018-11-14T14:16:58.417Z,101055.09
2018-11-14T14:19:35.628Z,101051.41
2018-11-14T14:22:09.612Z,100970.45
2018-11-14T14:24:58.560Z,101049.91
2018-11-14T14:27:38.560Z,101055.62
2018-11-14T14:30:24.528Z,101054.26
2018-11-14T14:33:01.255Z,101057.31
2018-11-14T14:35:33.905Z,101054.11
2018-11-14T14:44:07.702Z,101053.77
2018-11-14T14:46:43.371Z,101058.64
2018-11-14T14:49:17.429Z,101059.83
2018-11-14T14:51:58.028Z,101032.47
2018-11-14T14:54:31.503Z,101062.86
2018-11-14T14:57:07.348Z,101059.98
2018-11-14T14:59:43.431Z,101064.69
2018-11-14T15:02:20.692Z,101066.70
2018-11-14T15:04:56.112Z,101065.02
2018-11-14T15:07:31.671Z,101074.56
2018-11-14T15:10:11.809Z,101075.91
2018-11-14T15:12:46.374Z,101081.28
2018-11-14T15:15:30.326Z,101079.77
2018-11-14T15:18:04.309Z,101071.67
2018-11-14T15:20:38.721Z,101009.28
2018-11-14T15:23:15.108Z,101077.69
2018-11-14T15:25:54.861Z,101078.16
2018-11-14T15:28:29.789Z,101078.01
2018-11-14T15:31:07.085Z,101079.84
2018-11-14T15:33:42.664Z,101082.83
2018-11-14T15:36:18.486Z,101087.75
2018-11-14T15:38:54.831Z,101080.95
2018-11-14T15:41:30.358Z,101082.11
2018-11-14T15:44:08.998Z,101082.80
2018-11-14T15:46:46.819Z,101083.24
2018-11-14T15:52:10.515Z,101080.83
2018-11-14T15:54:55.402Z,101089.41
2018-11-14T15:57:32.393Z,101085.77
2018-11-14T16:00:13.955Z,101091.77
2018-11-14T16:02:48.280Z,101084.11
2018-11-14T16:05:24.758Z,101089.84
2018-11-14T16:08:01.128Z,101088.57
2018-11-14T16:13:19.372Z,101084.93
2018-11-14T16:15:53.836Z,101054.92
2018-11-14T16:18:34.089Z,101090.22
2018-11-14T16:21:07.944Z,101086.81
2018-11-14T16:23:43.877Z,101085.63
2018-11-14T16:26:16.003Z,101088.43
2018-11-14T16:28:59.511Z,101088.41
2018-11-14T16:31:32.542Z,101082.62
2018-11-14T16:34:09.553Z,101068.61
2018-11-14T16:36:50.617Z,101090.33
2018-11-14T16:39:24.697Z,101090.64
2018-11-14T16:41:58.339Z,101096.84
2018-11-14T16:44:30.141Z,101096.98
2018-11-14T16:47:04.649Z,101086.91
2018-11-14T16:49:37.926Z,101073.97
2018-11-14T16:52:15.743Z,101087.40
2018-11-14T16:54:50.849Z,101074.23
2018-11-14T16:57:27.690Z,101089.22
2018-11-14T17:00:01.745Z,101080.65
2018-11-14T17:02:38.238Z,101077.55
2018-11-14T17:05:17.921Z,101070.38
2018-11-14T17:07:53.080Z,101047.73
2018-11-14T17:10:32.870Z,101060.46
2018-11-14T17:13:09.572Z,101070.07
2018-11-14T17:15:45.268Z,101069.77
2018-11-14T17:18:20.197Z,101048.38
2018-11-14T17:20:51.534Z,101063.64
2018-11-14T17:23:27.214Z,101068.25
2018-11-14T17:26:06.965Z,101064.59
2018-11-14T17:28:42.973Z,101062.93
2018-11-14T17:31:24.555Z,101068.66
2018-11-14T17:33:59.530Z,101064.42
2018-11-14T17:36:40.446Z,101064.13
2018-11-14T17:39:21.395Z,101059.29
2018-11-14T17:41:59.135Z,101064.48
2018-11-14T17:44:32.015Z,101066.70
2018-11-14T17:47:03.869Z,101064.73
2018-11-14T17:49:45.291Z,101071.07
2018-11-14T17:52:20.739Z,101068.55
2018-11-14T17:54:57.094Z,101066.89
2018-11-14T17:57:34.322Z,101067.55
2018-11-14T18:00:21.596Z,101064.22
2018-11-14T18:03:01.819Z,101074.34
2018-11-14T18:05:43.259Z,101068.66
2018-11-14T18:08:17.538Z,101071.10
2018-11-14T18:10:49.462Z,101073.97
2018-11-14T18:13:32.728Z,101071.66
2018-11-14T18:16:10.363Z,101070.92
2018-11-14T18:18:49.721Z,101073.42
2018-11-14T18:21:27.416Z,101073.84
2018-11-14T18:24:02.305Z,101065.07
2018-11-14T18:26:43.875Z,101066.19
2018-11-14T18:29:17.504Z,101062.08
2018-11-14T18:31:51.977Z,101057.85
2018-11-14T18:34:33.342Z,101057.36
2018-11-14T18:37:08.385Z,101057.95
2018-11-14T18:39:51.552Z,101057.28
2018-11-14T18:42:26.218Z,101062.59
2018-11-14T18:45:03.230Z,101059.66
2018-11-14T18:47:38.569Z,101055.98
2018-11-14T18:50:16.476Z,101039.12
2018-11-14T18:52:50.430Z,101053.29
2018-11-14T18:55:27.328Z,101043.05
2018-11-14T18:58:03.572Z,101045.03
2018-11-14T19:03:17.622Z,101046.41
2018-11-14T19:05:47.171Z,101048.91
2018-11-14T19:08:19.842Z,101045.79
2018-11-14T19:10:50.038Z,101037.57
2018-11-14T19:13:20.147Z,101039.81
2018-11-14T19:16:00.519Z,101034.29
2018-11-14T19:18:36.647Z,101025.72
2018-11-14T19:21:11.358Z,101035.38
2018-11-14T19:23:49.126Z,101025.58
2018-11-14T19:26:33.786Z,101032.64
2018-11-14T19:29:09.893Z,101040.23
2018-11-14T19:31:47.227Z,101027.91
2018-11-14T19:34:24.289Z,101039.17
2018-11-14T19:37:01.992Z,101038.14
2018-11-14T19:39:35.410Z,101050.06
2018-11-14T19:42:10.882Z,101041.14
2018-11-14T19:44:46.012Z,101035.64
2018-11-14T19:47:26.299Z,101040.19
2018-11-14T19:49:59.698Z,101042.11
2018-11-14T19:52:42.289Z,101041.22
2018-11-14T19:55:22.585Z,101036.61
2018-11-14T19:57:57.901Z,101035.12
2018-11-14T20:00:37.434Z,101034.88
2018-11-14T20:03:14.500Z,101038.38
2018-11-14T20:05:47.039Z,101040.00
2018-11-14T20:08:20.381Z,101021.05
2018-11-14T20:10:56.413Z,101029.16
2018-11-14T20:16:20.388Z,101027.15
2018-11-14T20:18:55.856Z,101034.55
2018-11-14T20:21:35.077Z,101036.22
2018-11-14T20:24:15.938Z,101034.28
2018-11-14T20:26:51.567Z,101027.11
2018-11-14T20:29:32.445Z,101029.36
2018-11-14T20:32:09.617Z,101017.34
2018-11-14T20:34:47.351Z,101012.43
2018-11-14T20:37:24.323Z,101018.15
2018-11-14T20:40:02.423Z,101024.58
2018-11-14T20:42:39.908Z,101025.77
2018-11-14T20:45:23.483Z,101021.91
2018-11-14T20:48:00.078Z,101023.91
2018-11-14T20:50:37.297Z,101024.16
2018-11-14T20:53:48.397Z,101018.36
2018-11-14T20:56:27.283Z,101027.17
2018-11-14T20:59:07.075Z,101018.72
2018-11-14T21:01:41.898Z,101022.44
2018-11-14T21:04:16.417Z,101026.89
2018-11-14T21:06:53.000Z,101029.58
2018-11-14T21:12:14.098Z,101029.31
2018-11-14T21:14:45.380Z,101036.58
2018-11-14T21:17:23.515Z,101046.41
2018-11-14T21:20:00.142Z,101035.11
2018-11-14T21:22:38.187Z,101039.00
2018-11-14T21:25:26.230Z,101035.83
2018-11-14T21:28:04.091Z,101028.19
2018-11-14T21:30:42.943Z,101036.23
2018-11-14T21:33:17.526Z,101036.18
2018-11-14T21:35:55.088Z,100909.28
2018-11-14T21:38:33.319Z,101031.55
2018-11-14T21:41:07.901Z,101030.93
2018-11-14T21:46:32.295Z,101035.77
2018-11-14T21:49:12.735Z,101030.70
2018-11-14T21:51:52.024Z,101035.12
2018-11-14T21:54:28.436Z,101032.56
2018-11-14T21:57:02.051Z,101035.62
2018-11-14T22:02:16.173Z,101032.34
2018-11-14T22:04:49.911Z,101037.76
2018-11-14T22:07:28.951Z,101033.06
2018-11-14T22:10:02.638Z,101041.34
2018-11-14T22:15:15.107Z,101017.70
2018-11-14T22:17:51.386Z,101035.95
2018-11-14T22:20:29.995Z,101035.58
2018-11-14T22:23:06.320Z,101039.84
2018-11-14T22:25:41.950Z,101036.86
2018-11-14T22:28:26.795Z,101035.22
2018-11-14T22:31:00.270Z,101036.66
2018-11-14T22:33:34.895Z,101039.59
2018-11-14T22:36:07.994Z,101044.67
2018-11-14T22:38:41.374Z,101037.53
2018-11-14T22:41:19.821Z,101044.70
2018-11-14T22:43:54.469Z,101045.67
2018-11-14T22:46:29.100Z,101034.59
2018-11-14T22:49:07.266Z,101037.95
2018-11-14T22:51:41.398Z,101045.30
2018-11-14T22:54:15.763Z,101048.20
2018-11-14T22:56:53.710Z,101045.75
2018-11-14T22:59:31.255Z,101045.25
2018-11-14T23:02:10.380Z,101045.94
2018-11-14T23:04:49.302Z,101045.34
2018-11-14T23:07:24.350Z,101042.90
2018-11-14T23:09:59.555Z,101018.16
2018-11-14T23:12:34.423Z,101044.97
2018-11-14T23:17:57.196Z,101042.00
2018-11-14T23:20:33.050Z,101044.74
2018-11-14T23:23:15.081Z,101041.80
2018-11-14T23:25:51.919Z,101040.50
2018-11-14T23:28:27.874Z,101035.02
2018-11-14T23:31:02.224Z,101028.61
2018-11-14T23:33:35.913Z,101045.95
2018-11-14T23:36:09.861Z,101047.25
2018-11-14T23:38:44.990Z,101036.80
2018-11-14T23:41:23.093Z,101044.58
2018-11-14T23:43:57.295Z,101042.00
2018-11-14T23:46:31.217Z,101040.25
2018-11-14T23:49:08.098Z,101042.23
2018-11-14T23:51:40.230Z,101043.37
2018-11-14T23:54:13.563Z,101042.27
2018-11-14T23:56:49.615Z,101040.40
2018-11-14T23:59:26.376Z,101043.21
